• Join FlightAware (Why Join?)
  • Login
  • US Flag 
Trick or treat! (Boo!!) 
03:10AM EDT


 

Airport Tracker/Info


-or-


 

Live Flight TrackerFlight Track Log ✈ EJA831 ✈ 10-Dec-2013 ✈ KDAY - KAMA

Flight Track Log - Related Links

Times and Time Zones

All times are in EST time to prevent confusion due to time zone crossing. See the EJA831 flight status page for this flight to view local times or setup timezone preferences in your user account.

Time Position Orientation Groundspeed Altitude Reporting Facility
EST Latitude Longitude Course Direction KTS MPH feet Rate Location/Type
12:21PM 39.8992 -84.2739 261° West 189 217 4,100  Level Indianapolis Center
12:22PM 39.8939 -84.3175 261° West 203 234 6,800 4,140 Climbing Indianapolis Center
12:22PM 39.8956 -84.3464 274° West 200 230 8,400 1,980 Climbing Indianapolis Center
12:23PM 39.9258 -84.4172 299° West 215 247 9,600 2,280 Climbing Indianapolis Center
12:24PM 39.9497 -84.4969 291° West 232 267 13,100 3,900 Climbing Indianapolis Center
12:25PM 39.9475 -84.5894 268° West 252 290 17,700 3,780 Climbing Indianapolis Center
12:26PM 39.9456 -84.6789 268° West 252 290 20,900 2,340 Climbing Indianapolis Center
12:27PM 39.9431 -84.7786 268° West 269 310 22,600 1,020 Climbing Indianapolis Center
12:28PM 39.9400 -84.8856 268° West 291 335 23,100 1,500 Climbing Indianapolis Center
12:29PM 39.9372 -85.0061 268° West 282 325 25,700 2,280 Climbing Indianapolis Center
12:30PM 39.9344 -85.1056 268° West 277 319 27,800 2,040 Climbing Indianapolis Center
12:31PM 39.9319 -85.2011 268° West 268 308 29,900 2,040 Climbing Indianapolis Center
12:32PM 39.9303 -85.2919 269° West 254 292 32,000 1,920 Climbing Indianapolis Center
12:33PM 39.9289 -85.3758 269° West 237 273 33,900 1,620 Climbing Indianapolis Center
12:34PM 39.9264 -85.4567 268° West 226 260 35,400 1,140 Climbing Indianapolis Center
12:35PM 39.9231 -85.5383 267° West 226 260 36,300 900 Climbing Indianapolis Center
12:36PM 39.9206 -85.6225 268° West 231 266 37,300 840 Climbing Indianapolis Center
12:37PM 39.9164 -85.7272 267° West 238 274 38,100 960 Climbing Indianapolis Center
12:38PM 39.9153 -85.8156 269° West 244 281 39,300 900 Climbing Indianapolis Center
12:39PM 39.9114 -85.8992 267° West 236 272 40,000 300 Climbing Indianapolis Center
12:40PM 39.9092 -85.9928 268° West 240 276 40,000  Level Indianapolis Center
12:41PM 39.9056 -86.0892 267° West 258 297 40,000  Level Indianapolis Center
12:42PM 39.9017 -86.1881 267° West 269 310 40,000  Level Indianapolis Center
12:43PM 39.8994 -86.2889 268° West 276 318 40,000  Level Indianapolis Center
12:44PM 39.8953 -86.3919 267° West 281 323 40,000  Level Indianapolis Center
12:45PM 39.8914 -86.4967 267° West 287 330 40,000  Level Indianapolis Center
12:47PM 39.8872 -86.6047 267° West 294 338 40,000  Level Indianapolis Center
12:48PM 39.8833 -86.7108 267° West 294 338 40,000  Level Indianapolis Center
12:49PM 39.8781 -86.8364 267° West 291 335 40,000  Level Indianapolis Center
12:50PM 39.8733 -86.9417 267° West 290 334 40,000  Level Indianapolis Center
12:51PM 39.8686 -87.0467 267° West 291 335 40,000  Level Indianapolis Center
12:52PM 39.8647 -87.1514 267° West 290 334 40,000  Level Indianapolis Center
12:53PM 39.8597 -87.2567 266° West 290 334 40,000  Level Indianapolis Center
12:54PM 39.8553 -87.3625 267° West 292 336 40,000  Level Indianapolis Center
12:55PM 39.8500 -87.4661 266° West 289 333 40,000  Level Indianapolis Center
12:56PM 39.8450 -87.5706 266° West 289 333 40,000  Level Indianapolis Center
12:57PM 39.8408 -87.6750 267° West 288 331 40,000  Level Indianapolis Center
12:58PM 39.8358 -87.7808 267° West 290 334 40,000  Level Indianapolis Center
12:59PM 39.8283 -87.9061 266° West 290 334 40,000  Level Indianapolis Center
01:00PM 39.8231 -88.0114 266° West 290 334 40,000  Level Indianapolis Center
01:01PM 39.8186 -88.1156 267° West 290 334 40,000  Level Indianapolis Center
01:02PM 39.8131 -88.2189 266° West 289 333 40,000  Level Indianapolis Center
01:03PM 39.8075 -88.3233 266° West 288 331 40,000  Level Indianapolis Center
01:04PM 39.8011 -88.4289 266° West 289 333 40,000  Level Indianapolis Center
01:05PM 39.7944 -88.5686 266° West 293 337 40,000  Level Kansas City Center
01:06PM 39.7894 -88.6742 267° West 293 337 40,000  Level Kansas City Center
01:07PM 39.7831 -88.7803 266° West 294 338 40,000  Level Kansas City Center
01:08PM 39.7764 -88.8867 265° West 294 338 40,000  Level Kansas City Center
01:09PM 39.7697 -88.9944 265° West 297 342 40,000  Level Kansas City Center
01:10PM 39.7639 -89.1028 266° West 300 345 40,000  Level Kansas City Center
01:11PM 39.7567 -89.2308 266° West 297 342 40,000  Level Kansas City Center
01:12PM 39.7494 -89.3389 265° West 298 343 40,000  Level Kansas City Center
01:13PM 39.7428 -89.4481 265° West 301 346 40,000  Level Kansas City Center
01:15PM 39.7353 -89.5556 265° West 300 345 40,000  Level Kansas City Center
01:16PM 39.7289 -89.6647 266° West 301 346 40,000  Level Kansas City Center
01:17PM 39.7217 -89.7747 265° West 303 349 40,000  Level Kansas City Center
01:18PM 39.7136 -89.8953 265° West 302 348 40,000  Level Kansas City Center
01:19PM 39.7075 -90.0031 266° West 300 345 40,000  Level Kansas City Center
01:20PM 39.6989 -90.1097 264° West 300 345 40,000  Level Kansas City Center
01:21PM 39.6914 -90.2181 265° West 301 346 40,000  Level Kansas City Center
01:22PM 39.6822 -90.3475 265° West 302 348 40,000  Level Kansas City Center
01:23PM 39.6742 -90.4575 265° West 305 351 40,000  Level Kansas City Center
01:24PM 39.6667 -90.5664 265° West 305 351 40,000  Level Kansas City Center
01:25PM 39.6589 -90.6761 265° West 306 352 40,000  Level Kansas City Center
01:26PM 39.6506 -90.7847 264° West 305 351 40,000  Level Kansas City Center
01:27PM 39.6408 -90.9131 264° West 302 348 40,000  Level Kansas City Center
01:28PM 39.6319 -91.0222 264° West 303 349 40,000  Level Kansas City Center
01:29PM 39.6236 -91.1306 264° West 304 350 40,000  Level Kansas City Center
01:30PM 39.6150 -91.2386 264° West 303 349 40,000  Level Kansas City Center
01:31PM 39.6053 -91.3539 264° West 300 345 40,000  Level Kansas City Center
01:32PM 39.5975 -91.4600 265° West 298 343 40,000  Level Kansas City Center
01:33PM 39.5878 -91.5681 263° West 300 345 40,000  Level Kansas City Center
01:34PM 39.5789 -91.6747 264° West 299 344 40,000  Level Kansas City Center
01:35PM 39.5686 -91.8050 264° West 303 349 40,000  Level Kansas City Center
01:36PM 39.5589 -91.9128 263° West 303 349 40,000  Level Kansas City Center
01:37PM 39.5500 -92.0206 264° West 303 349 40,000  Level Kansas City Center
01:38PM 39.5419 -92.1258 264° West 298 343 40,000  Level Kansas City Center
01:39PM 39.5314 -92.2356 263° West 301 346 40,000  Level Kansas City Center
01:40PM 39.5219 -92.3433 264° West 302 348 40,000  Level Kansas City Center
01:41PM 39.5094 -92.4753 263° West 304 350 40,000  Level Kansas City Center
01:42PM 39.4997 -92.5817 263° West 304 350 40,000  Level Kansas City Center
01:43PM 39.4908 -92.6903 264° West 304 350 40,000  Level Kansas City Center
01:45PM 39.4814 -92.8003 264° West 305 351 40,000  Level Kansas City Center
01:46PM 39.4706 -92.9078 263° West 304 350 40,000  Level Kansas City Center
01:47PM 39.4611 -93.0175 264° West 305 351 40,000  Level Kansas City Center
01:48PM 39.4467 -93.1442 262° West 302 348 40,000  Level Kansas City Center
01:49PM 39.4356 -93.2533 263° West 305 351 40,000  Level Kansas City Center
01:50PM 39.4258 -93.3625 263° West 307 353 40,000  Level Kansas City Center
01:51PM 39.4164 -93.4750 264° West 312 359 40,000  Level Kansas City Center
01:52PM 39.4047 -93.5842 262° West 310 357 40,000  Level Kansas City Center
01:53PM 39.3919 -93.7172 263° West 312 359 40,000  Level Kansas City Center
01:54PM 39.3814 -93.8306 263° West 309 356 40,000  Level Kansas City Center
01:55PM 39.3706 -93.9361 262° West 310 357 40,000  Level Kansas City Center
01:56PM 39.3581 -94.0597 263° West 310 357 40,000  Level Kansas City Center
01:57PM 39.3469 -94.1658 262° West 311 358 40,000  Level Kansas City Center
01:58PM 39.3339 -94.2894 262° West 310 357 40,000  Level Kansas City Center
01:59PM 39.3222 -94.3967 262° West 314 361 40,000  Level Kansas City Center
02:00PM 39.3117 -94.5028 263° West 312 359 40,000  Level Kansas City Center
02:01PM 39.2972 -94.6283 262° West 316 364 40,000  Level Kansas City Center
02:02PM 39.2844 -94.7353 261° West 315 362 40,000  Level Kansas City Center
02:03PM 39.2272 -94.8464 236° Southwest 331 381 40,000  Level Kansas City Center
02:04PM 39.1786 -94.9411 237° Southwest 330 380 40,000  Level Kansas City Center
02:05PM 39.1211 -95.0514 236° Southwest 329 379 40,000  Level Kansas City Center
02:06PM 39.0692 -95.1522 236° Southwest 333 383 40,000  Level Kansas City Center
02:07PM 39.0158 -95.2528 236° Southwest 328 377 40,000  Level Kansas City Center
02:08PM 38.9650 -95.3497 236° Southwest 326 375 40,000  Level Kansas City Center
02:09PM 38.9153 -95.4433 236° Southwest 329 379 40,000  Level Kansas City Center
02:10PM 38.8575 -95.5517 236° Southwest 329 379 40,000  Level Kansas City Center
02:11PM 38.8089 -95.6431 236° Southwest 325 374 40,000  Level Kansas City Center
02:12PM 38.7528 -95.7489 236° Southwest 321 369 40,000  Level Kansas City Center
02:14PM 38.7047 -95.8406 236° Southwest 323 372 40,000  Level Kansas City Center
02:15PM 38.6478 -95.9461 235° Southwest 323 372 40,000  Level Kansas City Center
02:16PM 38.5986 -96.0361 235° Southwest 322 371 40,000  Level Kansas City Center
02:17PM 38.5419 -96.1425 236° Southwest 324 373 40,000  Level Kansas City Center
02:18PM 38.4931 -96.2325 235° Southwest 322 371 40,000  Level Kansas City Center
02:19PM 38.4436 -96.3236 235° Southwest 324 373 40,000  Level Kansas City Center
02:20PM 38.3872 -96.4292 236° Southwest 323 372 40,000  Level Kansas City Center
02:21PM 38.3325 -96.5289 235° Southwest 320 368 40,000  Level Kansas City Center
02:22PM 38.2800 -96.6247 235° Southwest 318 366 40,000  Level Kansas City Center
02:23PM 38.2269 -96.7219 235° Southwest 319 367 40,000  Level Kansas City Center
02:24PM 38.1747 -96.8181 235° Southwest 317 365 40,000  Level Kansas City Center
02:25PM 38.1253 -96.9064 235° Southwest 319 367 40,000  Level Kansas City Center
02:26PM 38.0725 -97.0019 235° Southwest 317 365 40,000  Level Kansas City Center
02:27PM 38.0186 -97.0978 235° Southwest 317 365 40,000  Level Kansas City Center
02:28PM 37.9647 -97.1933 234° Southwest 321 369 40,000  Level Kansas City Center
02:29PM 37.9114 -97.2892 235° Southwest 320 368 40,000  Level Kansas City Center
02:30PM 37.8572 -97.3856 235° Southwest 322 371 40,000  Level Kansas City Center
02:31PM 37.8111 -97.4675 235° Southwest 324 373 40,000  Level Kansas City Center
02:32PM 37.7464 -97.5794 234° Southwest 326 375 40,000  Level Kansas City Center
02:33PM 37.6917 -97.6706 233° Southwest 325 374 40,000  Level Kansas City Center
02:34PM 37.6367 -97.7625 233° Southwest 326 375 40,000  Level Kansas City Center
02:35PM 37.5819 -97.8539 233° Southwest 325 374 40,000  Level Kansas City Center
02:36PM 37.5272 -97.9453 233° Southwest 327 376 40,000  Level Kansas City Center
02:37PM 37.4736 -98.0339 233° Southwest 319 367 40,000  Level Kansas City Center
02:38PM 37.4181 -98.1239 232° Southwest 324 373 40,000  Level Kansas City Center
02:39PM 37.3542 -98.2303 233° Southwest 317 365 40,000  Level Kansas City Center
02:40PM 37.3006 -98.3186 233° Southwest 317 365 40,000  Level Kansas City Center
02:41PM 37.2489 -98.4072 234° Southwest 315 362 40,000  Level Kansas City Center
02:42PM 37.1958 -98.4947 233° Southwest 314 361 40,000  Level Kansas City Center
02:44PM 37.1431 -98.5783 232° Southwest 310 357 40,000  Level Kansas City Center
02:45PM 37.0903 -98.6656 233° Southwest 310 357 40,000  Level Kansas City Center
02:46PM 37.0381 -98.7542 234° Southwest 313 360 40,000  Level Kansas City Center
02:47PM 36.9756 -98.8578 233° Southwest 312 359 40,000  Level Kansas City Center
02:48PM 36.9228 -98.9450 233° Southwest 313 360 40,000  Level Kansas City Center
02:49PM 36.8686 -99.0314 232° Southwest 315 362 40,000  Level Kansas City Center
02:50PM 36.8167 -99.1183 233° Southwest 313 360 40,000  Level Kansas City Center
02:51PM 36.7622 -99.2061 232° Southwest 317 365 40,000  Level Kansas City Center
02:52PM 36.7094 -99.2919 233° Southwest 315 362 40,000 -780 Level Kansas City Center
02:53PM 36.6453 -99.3961 233° Southwest 315 362 38,400 -1,680 Descending Kansas City Center
02:54PM 36.5922 -99.4817 232° Southwest 314 361 36,600 -1,800 Descending Kansas City Center
02:55PM 36.5403 -99.5664 233° Southwest 311 358 34,700 -1,860 Descending Kansas City Center
02:56PM 36.4869 -99.6511 232° Southwest 311 358 32,800 -1,740 Descending Kansas City Center
02:57PM 36.4319 -99.7400 232° Southwest 318 366 31,200 -1,320 Descending Kansas City Center
02:58PM 36.3725 -99.8347 232° Southwest 334 384 30,100 -600 Descending Kansas City Center
02:59PM 36.3011 -99.9517 233° Southwest 349 402 30,000 -60 Descending Kansas City Center
03:00PM 36.2442 -100.0486 234° Southwest 349 402 30,000 -120 Level Kansas City Center
03:01PM 36.1858 -100.1456 233° Southwest 350 403 29,800 -1,080 Descending Kansas City Center
03:02PM 36.1292 -100.2414 234° Southwest 347 399 27,900 -1,860 Descending Kansas City Center
03:03PM 36.0708 -100.3367 233° Southwest 347 399 26,100 -1,800 Descending Kansas City Center
03:04PM 36.0353 -100.3936 232° Southwest 348 400 25,200 -1,320 Descending Albuquerque Center
03:05PM 35.9797 -100.4856 233° Southwest 339 390 24,100 -600 Descending Albuquerque Center
03:06PM 35.9233 -100.5783 233° Southwest 338 389 24,000 -780 Descending Albuquerque Center
03:07PM 35.8647 -100.6719 232° Southwest 341 392 22,600 -1,560 Descending Albuquerque Center
03:08PM 35.8094 -100.7656 234° Southwest 339 390 20,800 -1,920 Descending Albuquerque Center
03:09PM 35.7433 -100.8736 233° Southwest 331 381 18,700 -1,860 Descending Albuquerque Center
03:10PM 35.6889 -100.9636 233° Southwest 326 375 17,000 -1,740 Descending Albuquerque Center
03:11PM 35.6369 -101.0511 234° Southwest 322 371 15,200 -1,800 Descending Albuquerque Center
03:12PM 35.5850 -101.1350 233° Southwest 315 362 13,400 -1,620 Descending Albuquerque Center
03:13PM 35.5339 -101.2169 233° Southwest 309 356 12,000 -1,380 Descending Albuquerque Center
03:14PM 35.4875 -101.2981 235° Southwest 299 344 10,600 -1,380 Descending Albuquerque Center
03:15PM 35.4456 -101.3700 234° Southwest 272 313 9,200 -1,440 Descending Albuquerque Center
03:16PM 35.3986 -101.4464 233° Southwest 245 282 7,700 -1,260 Descending Albuquerque Center
03:17PM 35.3600 -101.5094 233° Southwest 237 273 6,600 -1,080 Descending Albuquerque Center
03:18PM 35.3244 -101.5681 233° Southwest 228 262 5,500 -780 Descending Albuquerque Center
03:19PM 35.2919 -101.6219 234° Southwest 213 245 5,000 -540 Descending Albuquerque Center
03:20PM 35.2592 -101.6650 227° Southwest 169 194 4,500 -540 Descending Albuquerque Center
03:21PM 35.2383 -101.6914 226° Southwest 139 160 3,900 -480 Descending Albuquerque Center
03:22PM 35.2214 -101.7122 225° Southwest 109 125 3,600 -300 Descending Albuquerque Center